KGIF/GIF METAR and TAF weather

Enter ICAO airport designator
Station Type Date Time Source
KGIF METAR 2019/12/05 22:53 UTC NOAA

KGIF 052253Z AUTO 00000KT 10SM CLR 16/06 A3014 RMK AO2 SLP206 T01610061


Station Type Date Time Source
KGIF Decoded METAR 2019/12/05 22:53 UTC NOAA

WINTER HAVENS GILBERT AIRPORT , FL, United States (KGIF) 28-04N 81-45W 43M
Dec 05, 2019 - 05:53 PM EST / 2019.12.05 2253 UTC
Wind: Calm:0
Visibility: 10 mile(s):0
Sky conditions: clear
Temperature: 61.0 F (16.1 C)
Dew Point: 43.0 F (6.1 C)
Relative Humidity: 51%
Pressure (altimeter): 30.14 in. Hg (1020 hPa)
ob: KGIF 052253Z AUTO 00000KT 10SM CLR 16/06 A3014 RMK AO2 SLP206 T01610061
cycle: 23

Station Type Date Time Source
KGIF TAF UTC NOAA

Error!

Example: see airport list